createdAt,value
2022-09-23T00:01:35.407Z,96031.53
2022-09-23T00:04:04.132Z,96025.84
2022-09-23T00:06:32.512Z,96009.84
2022-09-23T00:09:00.909Z,96022.84
2022-09-23T00:11:30.744Z,96015.84
2022-09-23T00:14:00.839Z,96018.44
2022-09-23T00:16:31.311Z,96027.50
2022-09-23T00:18:59.973Z,96018.09
2022-09-23T00:21:29.148Z,96013.00
2022-09-23T00:23:57.938Z,96015.88
2022-09-23T00:26:26.364Z,96018.56
2022-09-23T00:28:56.194Z,96013.22
2022-09-23T00:31:27.513Z,96009.72
2022-09-23T00:33:56.870Z,95999.59
2022-09-23T00:36:26.655Z,95887.13
2022-09-23T00:38:55.791Z,95933.31
2022-09-23T00:41:24.830Z,96004.13
2022-09-23T00:43:56.875Z,95999.94
2022-09-23T00:46:29.988Z,96001.56
2022-09-23T00:49:03.033Z,95997.25
2022-09-23T00:51:36.200Z,96000.53
2022-09-23T00:54:05.720Z,95994.69
2022-09-23T00:56:34.963Z,95998.38
2022-09-23T00:59:05.460Z,95988.44
2022-09-23T01:01:33.975Z,95979.78
2022-09-23T01:04:02.668Z,95993.13
2022-09-23T01:06:31.127Z,95983.06
2022-09-23T01:08:59.709Z,95975.44
2022-09-23T01:11:40.665Z,95981.03
2022-09-23T01:14:27.105Z,95979.56
2022-09-23T01:17:04.925Z,95962.94
2022-09-23T01:19:57.972Z,95968.50
2022-09-23T01:22:36.159Z,95971.63
2022-09-23T01:25:37.360Z,95965.03
2022-09-23T01:28:30.495Z,95959.75
2022-09-23T01:31:08.298Z,95963.78
2022-09-23T01:33:43.373Z,95931.22
2022-09-23T01:36:23.407Z,95950.78
2022-09-23T01:39:00.387Z,95922.97
2022-09-23T01:41:45.729Z,95905.13
2022-09-23T01:44:20.916Z,95922.97
2022-09-23T01:46:55.748Z,95948.53
2022-09-23T01:49:29.987Z,95930.63
2022-09-23T01:52:02.996Z,95947.22
2022-09-23T01:54:38.778Z,95948.00
2022-09-23T01:57:11.760Z,95941.84
2022-09-23T01:59:43.081Z,95943.72
2022-09-23T02:02:17.487Z,95938.91
2022-09-23T02:04:50.632Z,95940.75
2022-09-23T02:07:24.581Z,95938.91
2022-09-23T02:09:59.309Z,95944.59
2022-09-23T02:12:31.801Z,95936.00
2022-09-23T02:15:04.717Z,95926.75
2022-09-23T02:17:41.264Z,95940.84
2022-09-23T02:20:12.737Z,95945.72
2022-09-23T02:22:44.016Z,95945.72
2022-09-23T02:25:16.413Z,95937.09
2022-09-23T02:27:53.079Z,95925.75
2022-09-23T02:30:27.342Z,95940.38
2022-09-23T02:33:06.255Z,95924.13
2022-09-23T02:35:39.091Z,95929.63
2022-09-23T02:38:20.792Z,95927.50
2022-09-23T02:40:56.007Z,95927.00
2022-09-23T02:43:35.828Z,95915.66
2022-09-23T02:46:06.229Z,95915.47
2022-09-23T02:48:41.700Z,95922.19
2022-09-23T02:51:10.518Z,95910.91
2022-09-23T02:53:39.601Z,95906.00
2022-09-23T02:56:16.278Z,95916.28
2022-09-23T02:58:47.055Z,95919.47
2022-09-23T03:01:32.750Z,95911.75
2022-09-23T03:04:14.980Z,95915.72
2022-09-23T03:06:54.861Z,95912.56
2022-09-23T03:09:27.943Z,95907.19
2022-09-23T03:12:07.342Z,95911.47
2022-09-23T03:14:44.830Z,95903.69
2022-09-23T03:17:20.125Z,95895.88
2022-09-23T03:19:55.499Z,95782.25
2022-09-23T03:22:29.472Z,95905.00
2022-09-23T03:25:04.492Z,95901.75
2022-09-23T03:27:36.052Z,95902.81
2022-09-23T03:30:06.252Z,95895.00
2022-09-23T03:32:36.396Z,95895.00
2022-09-23T03:35:07.785Z,95895.81
2022-09-23T03:37:41.105Z,95892.59
2022-09-23T03:40:15.344Z,95889.81
2022-09-23T03:42:43.960Z,95884.94
2022-09-23T03:45:18.613Z,95863.88
2022-09-23T03:47:47.997Z,95882.75
2022-09-23T03:50:18.661Z,95880.56
2022-09-23T03:52:47.664Z,95873.63
2022-09-23T03:55:17.169Z,95870.94
2022-09-23T03:57:46.123Z,95838.34
2022-09-23T04:00:16.239Z,95870.84
2022-09-23T04:02:44.991Z,95881.84
2022-09-23T04:05:14.622Z,95867.38
2022-09-23T04:07:44.381Z,95860.50
2022-09-23T04:10:12.780Z,95867.78
2022-09-23T04:12:41.116Z,95828.00
2022-09-23T04:15:10.134Z,95866.91
2022-09-23T04:17:38.800Z,95862.13
2022-09-23T04:20:08.020Z,95861.06
2022-09-23T04:22:38.278Z,95859.69
2022-09-23T04:25:10.144Z,95861.00
2022-09-23T04:27:38.986Z,95853.19
2022-09-23T04:30:08.349Z,95849.13
2022-09-23T04:32:36.687Z,95850.28
2022-09-23T04:35:05.992Z,95842.66
2022-09-23T04:37:34.445Z,95844.69
2022-09-23T04:40:03.409Z,95835.78
2022-09-23T04:42:33.224Z,95837.97
2022-09-23T04:45:01.929Z,95838.63
2022-09-23T04:47:32.675Z,95836.03
2022-09-23T04:50:01.108Z,95846.16
2022-09-23T04:52:31.423Z,95832.53
2022-09-23T04:54:59.829Z,95841.22
2022-09-23T04:57:28.368Z,95843.59
2022-09-23T04:59:58.282Z,95841.56
2022-09-23T05:02:27.431Z,95843.00
2022-09-23T05:04:55.848Z,95819.16
2022-09-23T05:07:24.694Z,95856.31
2022-09-23T05:09:53.071Z,95855.66
2022-09-23T05:12:21.408Z,95852.97
2022-09-23T05:14:49.812Z,95856.59
2022-09-23T05:17:19.804Z,95857.91
2022-09-23T05:19:48.150Z,95853.50
2022-09-23T05:22:16.571Z,95860.97
2022-09-23T05:24:44.955Z,95855.94
2022-09-23T05:27:13.347Z,95856.75
2022-09-23T05:29:41.689Z,95849.53
2022-09-23T05:32:10.216Z,95860.31
2022-09-23T05:34:40.228Z,95838.75
2022-09-23T05:37:08.556Z,95857.28
2022-09-23T05:39:36.989Z,95853.63
2022-09-23T05:42:06.285Z,95802.94
2022-09-23T05:44:34.763Z,95848.94
2022-09-23T05:47:03.293Z,95856.47
2022-09-23T05:49:55.201Z,95847.72
2022-09-23T05:52:22.051Z,95853.31
2022-09-23T05:54:50.615Z,95854.19
2022-09-23T05:57:19.176Z,95854.53
2022-09-23T05:59:48.069Z,95847.72
2022-09-23T06:02:16.554Z,95823.78
2022-09-23T06:04:45.679Z,95846.25
2022-09-23T06:07:14.043Z,95802.31
2022-09-23T06:09:44.222Z,95846.41
2022-09-23T06:12:14.356Z,95850.59
2022-09-23T06:14:42.771Z,95855.69
2022-09-23T06:17:11.103Z,95840.75
2022-09-23T06:19:39.507Z,95850.47
2022-09-23T06:22:07.886Z,95839.09
2022-09-23T06:24:36.352Z,95846.06
2022-09-23T06:27:06.815Z,95835.66
2022-09-23T06:29:35.135Z,95841.59
2022-09-23T06:32:05.247Z,95835.81
2022-09-23T06:34:46.301Z,95802.81
2022-09-23T06:37:20.635Z,95840.19
2022-09-23T06:39:49.828Z,95836.63
2022-09-23T06:42:20.259Z,95838.19
2022-09-23T06:44:48.652Z,95837.31
2022-09-23T06:47:17.008Z,95834.19
2022-09-23T06:49:45.344Z,95840.78
2022-09-23T06:52:13.664Z,95751.25
2022-09-23T06:54:42.364Z,95841.53
2022-09-23T06:57:10.788Z,95853.19
2022-09-23T06:59:40.524Z,95845.28
2022-09-23T07:02:10.409Z,95841.09
2022-09-23T07:04:38.849Z,95834.03
2022-09-23T07:07:07.205Z,95832.50
2022-09-23T07:09:35.596Z,95829.91
2022-09-23T07:12:04.740Z,95816.19
2022-09-23T07:14:33.376Z,95833.50
2022-09-23T07:17:03.855Z,95846.31
2022-09-23T07:19:32.146Z,95839.66
2022-09-23T07:22:00.638Z,95843.75
2022-09-23T07:24:29.332Z,95842.19
2022-09-23T07:26:57.780Z,95829.81
2022-09-23T07:29:26.378Z,95842.28
2022-09-23T07:32:01.437Z,95843.91
2022-09-23T07:34:36.548Z,95834.41
2022-09-23T07:37:05.355Z,95850.16
2022-09-23T07:39:33.854Z,95832.13
2022-09-23T07:42:02.822Z,95849.94
2022-09-23T07:44:32.140Z,95841.31
2022-09-23T07:47:01.412Z,95844.31
2022-09-23T07:49:29.740Z,95853.22
2022-09-23T07:51:59.595Z,95845.72
2022-09-23T07:54:29.906Z,95812.56
2022-09-23T07:56:58.250Z,95830.09
2022-09-23T07:59:27.444Z,95854.34
2022-09-23T08:01:57.718Z,95857.88
2022-09-23T08:04:29.325Z,95855.44
2022-09-23T08:07:03.041Z,95841.41
2022-09-23T08:09:33.115Z,95845.19
2022-09-23T08:12:02.948Z,95845.22
2022-09-23T08:14:31.309Z,95856.53
2022-09-23T08:16:59.691Z,95853.28
2022-09-23T08:19:28.007Z,95835.22
2022-09-23T08:21:58.214Z,95847.34
2022-09-23T08:24:30.360Z,95847.91
2022-09-23T08:26:59.259Z,95814.22
2022-09-23T08:29:28.473Z,95758.94
2022-09-23T08:31:56.984Z,95841.34
2022-09-23T08:34:28.511Z,95836.75
2022-09-23T08:36:57.092Z,95831.59
2022-09-23T08:39:25.531Z,95824.31
2022-09-23T08:42:07.542Z,95814.84
2022-09-23T08:44:47.276Z,95834.50
2022-09-23T08:47:22.071Z,95837.47
2022-09-23T08:49:59.316Z,95828.72
2022-09-23T08:52:36.039Z,95825.47
2022-09-23T08:55:06.314Z,95813.91
2022-09-23T08:57:57.506Z,95817.38
2022-09-23T09:00:38.776Z,95822.44
2022-09-23T09:03:15.986Z,95823.28
2022-09-23T09:05:53.772Z,95827.03
2022-09-23T09:08:29.985Z,95829.97
2022-09-23T09:10:59.944Z,95826.97
2022-09-23T09:13:34.707Z,95811.91
2022-09-23T09:16:31.725Z,95821.88
2022-09-23T09:19:17.289Z,95821.63
2022-09-23T09:21:48.401Z,95793.16
2022-09-23T09:24:22.963Z,95827.03
2022-09-23T09:26:52.302Z,95837.84
2022-09-23T09:29:35.837Z,95827.50
2022-09-23T09:32:12.566Z,95837.84
2022-09-23T09:34:46.104Z,95827.56
2022-09-23T09:37:21.963Z,95837.19
2022-09-23T09:39:50.954Z,95840.94
2022-09-23T09:42:25.337Z,95828.78
2022-09-23T09:45:00.138Z,95809.66
2022-09-23T09:47:41.449Z,95831.94
2022-09-23T09:50:14.123Z,95814.94
2022-09-23T09:52:43.478Z,95821.94
2022-09-23T09:55:26.574Z,95824.34
2022-09-23T09:58:00.299Z,95818.38
2022-09-23T10:00:42.954Z,95812.25
2022-09-23T10:03:34.975Z,95815.63
2022-09-23T10:06:15.755Z,95814.25
2022-09-23T10:08:51.347Z,95804.00
2022-09-23T10:11:20.592Z,95803.97
2022-09-23T10:14:09.534Z,95812.28
2022-09-23T10:16:40.292Z,95803.91
2022-09-23T10:19:18.753Z,95805.25
2022-09-23T10:21:53.612Z,95804.41
2022-09-23T10:24:26.772Z,95802.47
2022-09-23T10:27:00.626Z,95801.78
2022-09-23T10:29:32.997Z,95798.69
2022-09-23T10:32:27.165Z,95804.56
2022-09-23T10:34:58.841Z,95803.72
2022-09-23T10:37:35.768Z,95795.19
2022-09-23T10:40:36.139Z,95783.22
2022-09-23T10:43:42.284Z,95792.19
2022-09-23T10:46:36.733Z,95800.41
2022-09-23T10:49:25.307Z,95795.91
2022-09-23T10:52:05.693Z,95792.97
2022-09-23T10:54:46.748Z,95784.44
2022-09-23T10:57:42.111Z,95784.19
2022-09-23T11:00:23.484Z,95755.78
2022-09-23T11:03:26.755Z,95762.66
2022-09-23T11:06:11.491Z,95777.06
2022-09-23T11:08:54.161Z,95779.38
2022-09-23T11:11:34.621Z,95771.91
2022-09-23T11:14:17.426Z,95767.31
2022-09-23T11:17:14.857Z,95768.97
2022-09-23T11:20:21.435Z,95744.06
2022-09-23T11:23:08.354Z,95763.59
2022-09-23T11:25:48.109Z,95758.19
2022-09-23T11:28:41.084Z,95757.22
2022-09-23T11:31:21.558Z,95753.22
2022-09-23T11:34:04.281Z,95745.91
2022-09-23T11:36:37.083Z,95744.44
2022-09-23T11:39:14.524Z,95741.53
2022-09-23T11:41:44.664Z,95740.03
2022-09-23T11:44:18.436Z,95740.69
2022-09-23T11:46:51.512Z,95746.41
2022-09-23T11:49:29.908Z,95698.16
2022-09-23T11:52:06.549Z,95726.81
2022-09-23T11:54:44.933Z,95732.72
2022-09-23T11:57:25.382Z,95723.41
2022-09-23T12:00:00.725Z,95722.97
2022-09-23T12:02:34.986Z,95713.25
2022-09-23T12:05:08.208Z,95713.75
2022-09-23T12:07:53.181Z,95715.84
2022-09-23T12:10:25.730Z,95720.19
2022-09-23T12:12:59.783Z,95684.34
2022-09-23T12:15:41.364Z,95715.66
2022-09-23T12:18:36.057Z,95697.63
2022-09-23T12:21:49.071Z,95694.59
2022-09-23T12:24:36.709Z,95705.34
2022-09-23T12:27:11.146Z,95676.69
2022-09-23T12:29:40.932Z,95699.84
2022-09-23T12:32:18.449Z,95696.78
2022-09-23T12:34:52.136Z,95694.78
2022-09-23T12:37:28.335Z,95697.72
2022-09-23T12:40:01.175Z,95686.75
2022-09-23T12:42:31.582Z,95684.91
2022-09-23T12:45:20.575Z,95687.91
2022-09-23T12:47:49.229Z,95686.88
2022-09-23T12:51:03.161Z,95684.66
2022-09-23T12:54:15.680Z,95683.88
2022-09-23T12:57:09.152Z,95669.38
2022-09-23T13:00:14.886Z,95667.31
2022-09-23T13:03:13.828Z,95674.38
2022-09-23T13:06:04.388Z,95675.47
2022-09-23T13:08:33.762Z,95659.97
2022-09-23T13:11:04.866Z,95666.72
2022-09-23T13:13:36.696Z,95668.13
2022-09-23T13:16:15.768Z,95652.63
2022-09-23T13:18:55.484Z,95652.44
2022-09-23T13:22:03.169Z,95648.50
2022-09-23T13:24:41.499Z,95601.97
2022-09-23T13:27:27.936Z,95632.66
2022-09-23T13:30:01.388Z,95625.81
2022-09-23T13:32:33.085Z,95634.03
2022-09-23T13:35:05.757Z,95620.25
2022-09-23T13:37:45.693Z,95598.63
2022-09-23T13:40:24.735Z,95621.78
2022-09-23T13:42:58.139Z,95624.66
2022-09-23T13:45:28.055Z,95623.53
2022-09-23T13:48:11.105Z,95614.25
2022-09-23T13:50:41.741Z,95619.00
2022-09-23T13:53:13.056Z,95618.53
2022-09-23T13:55:42.058Z,95612.66
2022-09-23T13:58:20.538Z,95614.06
2022-09-23T14:00:49.976Z,95621.59
2022-09-23T14:03:26.405Z,95615.81
2022-09-23T14:05:56.378Z,95605.56
2022-09-23T14:08:25.488Z,95610.19
2022-09-23T14:10:55.434Z,95607.66
2022-09-23T14:13:27.491Z,95606.72
2022-09-23T14:15:59.635Z,95586.66
2022-09-23T14:18:37.201Z,95584.25
2022-09-23T14:21:06.527Z,95603.44
2022-09-23T14:23:34.919Z,95537.28
2022-09-23T14:26:04.024Z,95589.88
2022-09-23T14:28:32.968Z,95332.78
2022-09-23T14:31:01.577Z,95589.66
2022-09-23T14:33:34.772Z,95586.91
2022-09-23T14:36:09.071Z,95581.06
2022-09-23T14:38:51.906Z,95577.25
2022-09-23T14:41:25.628Z,95588.13
2022-09-23T14:43:56.086Z,95585.75
2022-09-23T14:46:26.273Z,95578.13
2022-09-23T14:49:02.629Z,95579.41
2022-09-23T14:51:42.591Z,95580.03
2022-09-23T14:54:34.603Z,95578.53
2022-09-23T14:57:06.104Z,95581.75
2022-09-23T14:59:35.907Z,95520.50
2022-09-23T15:02:24.432Z,95523.72
2022-09-23T15:05:08.112Z,95571.13
2022-09-23T15:07:38.829Z,95565.91
2022-09-23T15:10:09.676Z,95562.88
2022-09-23T15:12:38.508Z,95548.84
2022-09-23T15:15:14.954Z,95563.31
2022-09-23T15:17:43.457Z,95551.25
2022-09-23T15:20:22.936Z,95570.25
2022-09-23T15:22:53.894Z,95558.06
2022-09-23T15:25:28.280Z,95559.09
2022-09-23T15:28:02.888Z,95553.25
2022-09-23T15:30:32.513Z,95557.97
2022-09-23T15:33:01.275Z,95483.78
2022-09-23T15:35:32.201Z,95557.69
2022-09-23T15:38:03.454Z,95435.09
2022-09-23T15:40:33.568Z,95558.91
2022-09-23T15:43:08.649Z,95553.78
2022-09-23T15:45:40.886Z,95550.03
2022-09-23T15:48:14.087Z,95552.06
2022-09-23T15:50:45.735Z,95545.44
2022-09-23T15:53:17.630Z,95548.44
2022-09-23T15:55:46.149Z,95542.34
2022-09-23T15:58:14.946Z,95538.63
2022-09-23T16:00:43.404Z,95540.06
2022-09-23T16:03:15.625Z,95538.53
2022-09-23T16:05:47.204Z,95543.75
2022-09-23T16:08:15.962Z,95543.06
2022-09-23T16:10:44.972Z,95541.84
2022-09-23T16:13:16.221Z,95534.63
2022-09-23T16:15:45.139Z,95542.88
2022-09-23T16:18:15.301Z,95540.75
2022-09-23T16:20:47.520Z,95534.59
2022-09-23T16:23:35.718Z,95531.19
2022-09-23T16:26:07.452Z,95499.28
2022-09-23T16:28:36.239Z,95529.34
2022-09-23T16:31:05.054Z,95539.56
2022-09-23T16:33:33.672Z,95533.94
2022-09-23T16:36:04.012Z,95465.63
2022-09-23T16:38:33.129Z,95523.50
2022-09-23T16:41:03.327Z,95521.69
2022-09-23T16:43:35.104Z,95518.78
2022-09-23T16:46:03.897Z,95521.84
2022-09-23T16:48:33.555Z,95526.56
2022-09-23T16:51:06.298Z,95517.72
2022-09-23T16:53:36.224Z,95511.66
2022-09-23T16:56:09.750Z,95515.81
2022-09-23T16:58:38.723Z,95482.25
2022-09-23T17:01:26.572Z,95448.53
2022-09-23T17:03:55.072Z,95489.09
2022-09-23T17:06:27.591Z,95528.09
2022-09-23T17:08:56.260Z,95519.56
2022-09-23T17:13:53.628Z,95522.38
2022-09-23T17:16:27.227Z,95532.75
2022-09-23T17:18:56.799Z,95529.38
2022-09-23T17:21:28.608Z,95517.19
2022-09-23T17:23:57.758Z,95533.16
2022-09-23T17:26:28.238Z,95510.94
2022-09-23T17:28:58.089Z,95496.00
2022-09-23T17:31:27.005Z,95491.75
2022-09-23T17:33:55.695Z,95533.13
2022-09-23T17:36:24.676Z,95532.63
2022-09-23T17:38:55.593Z,95534.78
2022-09-23T17:41:24.472Z,95537.00
2022-09-23T17:43:57.135Z,95525.84
2022-09-23T17:46:25.554Z,95450.63
2022-09-23T17:48:55.844Z,95514.06
2022-09-23T17:51:25.705Z,95530.09
2022-09-23T17:53:55.667Z,95527.16
2022-09-23T17:56:25.777Z,95522.63
2022-09-23T17:58:55.180Z,95478.72
2022-09-23T18:01:25.636Z,95527.31
2022-09-23T18:03:56.188Z,95534.13
2022-09-23T18:06:26.836Z,95537.38
2022-09-23T18:08:57.168Z,95534.19
2022-09-23T18:11:27.626Z,95532.00
2022-09-23T18:13:58.234Z,95534.22
2022-09-23T18:16:28.796Z,95527.75
2022-09-23T18:18:58.517Z,95452.22
2022-09-23T18:21:28.750Z,95520.28
2022-09-23T18:24:28.499Z,95473.59
2022-09-23T18:26:47.772Z,95517.66
2022-09-23T18:29:16.586Z,95511.75
2022-09-23T18:31:45.576Z,95519.88
2022-09-23T18:34:15.451Z,95511.28
2022-09-23T18:36:44.318Z,95524.75
2022-09-23T18:39:14.119Z,95527.72
2022-09-23T18:41:43.252Z,95512.16
2022-09-23T18:44:11.913Z,95518.31
2022-09-23T18:46:40.565Z,95523.13
2022-09-23T18:49:27.380Z,95518.53
2022-09-23T18:51:57.704Z,95507.50
2022-09-23T18:54:29.566Z,95518.25
2022-09-23T18:56:59.433Z,95510.13
2022-09-23T18:59:30.008Z,95523.66
2022-09-23T19:01:59.158Z,95522.56
2022-09-23T19:04:29.144Z,95500.59
2022-09-23T19:06:59.019Z,95513.94
2022-09-23T19:09:28.793Z,95519.34
2022-09-23T19:11:57.863Z,95525.84
2022-09-23T19:14:26.667Z,95532.31
2022-09-23T19:16:55.461Z,95525.31
2022-09-23T19:19:24.328Z,95512.09
2022-09-23T19:21:52.814Z,95516.69
2022-09-23T19:24:21.152Z,95514.53
2022-09-23T19:26:51.096Z,95513.47
2022-09-23T19:29:22.231Z,95511.84
2022-09-23T19:31:51.218Z,95518.34
2022-09-23T19:34:23.925Z,95511.34
2022-09-23T19:36:52.946Z,95474.56
2022-09-23T19:39:23.641Z,95502.44
2022-09-23T19:41:55.842Z,95511.34
2022-09-23T19:44:25.697Z,95505.41
2022-09-23T19:46:56.914Z,95511.91
2022-09-23T19:49:26.039Z,95507.06
2022-09-23T19:51:56.469Z,95503.84
2022-09-23T19:54:27.485Z,95506.81
2022-09-23T19:56:57.514Z,95499.53
2022-09-23T19:59:26.593Z,95491.75
2022-09-23T20:01:56.150Z,95490.94
2022-09-23T20:04:25.036Z,95487.41
2022-09-23T20:06:53.436Z,95483.91
2022-09-23T20:09:22.328Z,95483.91
2022-09-23T20:11:51.229Z,95480.97
2022-09-23T20:14:22.662Z,95479.09
2022-09-23T20:16:53.252Z,95484.47
2022-09-23T20:19:22.069Z,95476.38
2022-09-23T20:22:11.139Z,95472.59
2022-09-23T20:24:39.590Z,95478.00
2022-09-23T20:27:09.640Z,95475.81
2022-09-23T20:29:39.507Z,95478.50
2022-09-23T20:32:09.105Z,95473.94
2022-09-23T20:34:37.560Z,95466.06
2022-09-23T20:37:06.594Z,95467.66
2022-09-23T20:39:34.973Z,95452.00
2022-09-23T20:42:03.551Z,95456.59
2022-09-23T20:44:32.241Z,95457.41
2022-09-23T20:47:02.441Z,95458.72
2022-09-23T20:49:34.241Z,95385.53
2022-09-23T20:52:03.366Z,95464.94
2022-09-23T20:54:32.403Z,95465.19
2022-09-23T20:57:01.556Z,95471.41
2022-09-23T20:59:30.015Z,95467.63
2022-09-23T21:01:58.780Z,95464.38
2022-09-23T21:04:28.966Z,95448.56
2022-09-23T21:06:58.327Z,95456.28
2022-09-23T21:09:28.420Z,95432.75
2022-09-23T21:11:56.880Z,95441.72
2022-09-23T21:14:25.412Z,95439.81
2022-09-23T21:16:54.888Z,95451.44
2022-09-23T21:19:24.600Z,95437.41
2022-09-23T21:21:54.276Z,95432.81
2022-09-23T21:24:53.537Z,95409.34
2022-09-23T21:27:11.681Z,95450.38
2022-09-23T21:29:40.426Z,95454.97
2022-09-23T21:32:08.847Z,95420.59
2022-09-23T21:34:37.129Z,95446.38
2022-09-23T21:37:07.269Z,95443.94
2022-09-23T21:39:35.900Z,95453.16
2022-09-23T21:42:04.602Z,95439.91
2022-09-23T21:44:33.540Z,95448.31
2022-09-23T21:47:02.419Z,95427.69
2022-09-23T21:49:32.398Z,95447.19
2022-09-23T21:52:00.895Z,95448.31
2022-09-23T21:54:32.185Z,95447.50
2022-09-23T21:57:00.640Z,95454.53
2022-09-23T21:59:29.334Z,95455.84
2022-09-23T22:01:57.704Z,95446.94
2022-09-23T22:04:26.029Z,95452.03
2022-09-23T22:06:54.481Z,95446.94
2022-09-23T22:09:22.825Z,95416.00
2022-09-23T22:12:09.774Z,95420.00
2022-09-23T22:14:39.228Z,95421.31
2022-09-23T22:17:10.618Z,95431.78
2022-09-23T22:19:45.847Z,95438.50
2022-09-23T22:22:18.152Z,95433.09
2022-09-23T22:24:48.613Z,95432.53
2022-09-23T22:27:20.033Z,95432.25
2022-09-23T22:30:06.294Z,95436.56
2022-09-23T22:32:43.783Z,95425.75
2022-09-23T22:35:16.635Z,95420.63
2022-09-23T22:37:45.463Z,95417.41
2022-09-23T22:40:16.018Z,95422.53
2022-09-23T22:42:46.004Z,95422.81
2022-09-23T22:45:14.705Z,95384.25
2022-09-23T22:47:45.781Z,95416.91
2022-09-23T22:50:16.453Z,95413.09
2022-09-23T22:52:44.944Z,95418.50
2022-09-23T22:55:13.981Z,95415.81
2022-09-23T22:57:42.601Z,95417.41
2022-09-23T23:00:13.753Z,95395.94
2022-09-23T23:02:42.725Z,95415.81
2022-09-23T23:05:11.665Z,95417.41
2022-09-23T23:07:40.685Z,95407.72
2022-09-23T23:10:10.947Z,95356.28
2022-09-23T23:12:39.719Z,95395.31
2022-09-23T23:15:10.740Z,95397.44
2022-09-23T23:17:41.444Z,95399.03
2022-09-23T23:20:10.542Z,95396.09
2022-09-23T23:22:38.906Z,95389.63
2022-09-23T23:25:08.500Z,95387.72
2022-09-23T23:27:37.031Z,95390.69
2022-09-23T23:30:05.868Z,95393.75
2022-09-23T23:32:34.247Z,95393.75
2022-09-23T23:35:04.204Z,95384.16
2022-09-23T23:37:32.596Z,95391.66
2022-09-23T23:40:00.924Z,95394.66
2022-09-23T23:42:29.757Z,95345.31
2022-09-23T23:44:58.134Z,95382.03
2022-09-23T23:47:27.351Z,95388.53
2022-09-23T23:49:55.705Z,95393.41
2022-09-23T23:52:25.560Z,95348.09
2022-09-23T23:54:53.983Z,95375.69
2022-09-23T23:57:22.700Z,95383.75
2022-09-23T23:59:51.294Z,95386.72
